Buford, Ohio
Current Conditions -  °F | °C
As of 10:54 AM on Thursday 29 Jan 2015 (Local Time) from KILN Reporting Station
Clear Clear  
Wind Chill: 35°   Ceiling: Unl
Heat Index: 43°   Visibility: 10mi
Dew Point: 33°   Wind: 17mph
Humidity: 68%   Direction: 210°SSW
Pressure: 29.82"   Gusts: 28mph
Location:  39.08°N, 83.84°W
Report Text: KILN 291554Z AUTO 21015G24KT 10SM CLR 06/01 A2982 RMK AO2 SLP118 T00610006
Loading
Personal Weather Stations






























Interactive Weather Map New forecast layout! Learn more

10-Day Weather Forecast

Advertisements
Track Severe Weather on mobile